DW1970 Bodega Bay CA US current weather conditions

sailwx.info

Wind from 209

Air temperature 13.9° C
Dewpoint 12.3° C

Last reported at 2019-Jul-18 04:01 UTC.
Time now 2019-Jul-18 04:41 UTC

Location: N 38°23' W 123°04'.
View on Google Maps.

See reports from other nearby stations

  
Tides and Currents Weather Stations Pressure Air Temp Water Temp Dewpoint Dewpoint Depression Visibility Wind Speed Wind Dir Waves Ship Positions
date/time (UTC)wind fromknots sea level pressurealtimeterstation pressurevisibilityair tempwater tempwave heightnotes
2019-Jul-18 04:01 209 13.9
2019-Jul-18 03:45 209 13.9
2019-Jul-18 03:31 215 13.9
2019-Jul-18 03:16 215 13.9
2019-Jul-18 03:00 167 14.4
2019-Jul-18 02:46 119 15.0
2019-Jul-18 02:31 119 0 15.6
2019-Jul-18 02:16 119 1 15.6
2019-Jul-18 02:01 118 1 16.1
2019-Jul-18 01:46 147 1 16.1
2019-Jul-18 01:30 147 2 16.1
2019-Jul-18 01:15 153 2 16.7
2019-Jul-18 01:00 153 1 16.7
2019-Jul-18 00:45 152 1 17.2
2019-Jul-18 00:30 167 0 18.3
2019-Jul-18 00:15 202 1 17.8
2019-Jul-18 00:00 194 0 17.8
2019-Jul-17 23:46 194 1 17.8
2019-Jul-17 23:30 193 1 17.2
2019-Jul-17 23:16 191 1 17.2
2019-Jul-17 23:00 180 0 17.2
2019-Jul-17 22:46 207 1 17.2
2019-Jul-17 22:30 220 1 16.7
2019-Jul-17 22:15 221 0 17.2
2019-Jul-17 22:00 221 0 17.2
2019-Jul-17 21:45 227 1 16.7
2019-Jul-17 21:30 225 1 17.2
2019-Jul-17 21:15 215 2 17.8
2019-Jul-17 21:01 134 2 17.2
2019-Jul-17 20:45 180 1 17.2
2019-Jul-17 20:30 189 1 16.7
2019-Jul-17 20:15 197 1 15.6
2019-Jul-17 20:00 178 2 15.6
2019-Jul-17 19:45 188 1 15.6
2019-Jul-17 19:32 180 2 15.6
2019-Jul-17 19:30 174 1 15.6
2019-Jul-17 19:16 192 1 15.0
2019-Jul-17 18:31 207 2 15.6
2019-Jul-17 18:16 192 1 15.6
2019-Jul-17 18:02 204 1 15.6
2019-Jul-17 17:46 202 1 15.0
2019-Jul-17 17:31 192 1 14.4
2019-Jul-17 17:16 169 0 14.4
2019-Jul-17 17:01 191 1 13.9
2019-Jul-17 16:45 172 0 13.3
2019-Jul-17 16:32 175 12.8
2019-Jul-17 16:16 175 12.8
2019-Jul-17 16:01 175 12.8
2019-Jul-17 15:46 168 2 12.8
2019-Jul-17 15:32 304 12.8
2019-Jul-17 15:16 311 12.2
2019-Jul-17 15:01 322 12.2
2019-Jul-17 14:46 302 12.2
2019-Jul-17 14:30 298 11.7
2019-Jul-17 14:16 304 0 11.7
2019-Jul-17 13:45 070 12.2
2019-Jul-17 13:15 099 13.3
2019-Jul-17 13:00 348 13.3
2019-Jul-17 12:45 009 13.3
2019-Jul-17 12:31 071 13.9
2019-Jul-17 12:15 071 0 14.4
2019-Jul-17 12:01 078 1 14.4
2019-Jul-17 11:46 082 13.3
2019-Jul-17 11:30 082 12.2
2019-Jul-17 11:15 082 0 11.7
2019-Jul-17 11:00 102 10.6
2019-Jul-17 10:45 102 10.6
2019-Jul-17 10:31 102 11.1
2019-Jul-17 10:15 102 12.2
2019-Jul-17 10:01 102 13.3
2019-Jul-17 09:45 102 12.8
2019-Jul-17 09:30 102 13.3
2019-Jul-17 09:15 102 13.9
2019-Jul-17 09:00 103 12.8
2019-Jul-17 08:45 119 1 11.1
2019-Jul-17 08:30 133 4 10.6
2019-Jul-17 08:15 144 1 11.7
2019-Jul-17 08:00 067 0 12.2
2019-Jul-17 07:46 051 0 11.7
2019-Jul-17 07:31 174 11.1
2019-Jul-17 07:17 187 0 10.6
2019-Jul-17 07:01 213 0 11.1
2019-Jul-17 06:46 217 2 10.6
2019-Jul-17 06:31 256 10.6
2019-Jul-17 06:16 256 0 10.6
2019-Jul-17 06:04 285 10.6
2019-Jul-17 05:47 286 10.6
2019-Jul-17 05:31 286 11.1
2019-Jul-17 05:16 292 4 11.1
2019-Jul-17 05:01 281 4 11.1
2019-Jul-17 04:47 287 4 11.7
2019-Jul-17 04:31 294 6 11.7
2019-Jul-17 04:16 302 6 11.7
2019-Jul-17 04:01 298 3 11.7
2019-Jul-17 03:46 311 5 12.2
2019-Jul-17 03:31 295 6 12.2
2019-Jul-17 03:17 267 10 12.2
2019-Jul-17 03:01 289 12 12.8
2019-Jul-17 02:47 292 11 12.8
2019-Jul-17 02:30 291 9 13.3
2019-Jul-17 02:16 299 12 13.3
2019-Jul-17 02:01 284 11 13.3
2019-Jul-17 01:46 286 13 13.9
2019-Jul-17 01:30 311 13 13.9
2019-Jul-17 01:15 298 14 14.4
2019-Jul-17 01:00 298 12 13.9
2019-Jul-17 00:46 299 14 13.9
2019-Jul-17 00:30 297 13 15.0
2019-Jul-17 00:16 304 14 14.4
2019-Jul-17 00:00 307 13 15.0
2019-Jul-16 23:45 285 14 15.0
2019-Jul-16 23:30 275 13 15.0
2019-Jul-16 23:15 302 11 15.6
2019-Jul-16 23:00 293 13 15.6
2019-Jul-16 22:45 284 13 16.1
2019-Jul-16 22:30 279 13 15.6
2019-Jul-16 22:15 257 13 16.1
2019-Jul-16 22:00 281 13 16.1
2019-Jul-16 21:45 291 13 16.1
2019-Jul-16 21:30 283 13 16.1
2019-Jul-16 21:15 286 13 16.1
2019-Jul-16 21:00 320 14 16.1
2019-Jul-16 20:45 305 12 16.1
2019-Jul-16 20:30 299 9 16.1
2019-Jul-16 20:16 296 7 16.7
2019-Jul-16 20:00 275 11 16.7
2019-Jul-16 19:45 306 12 16.1
2019-Jul-16 19:30 292 13 16.1
2019-Jul-16 19:15 290 13 16.1
2019-Jul-16 19:00 298 13 16.1
2019-Jul-16 18:45 294 13 16.7
2019-Jul-16 18:30 288 8 16.7
2019-Jul-16 18:15 261 7 17.2
2019-Jul-16 18:00 290 6 16.7
2019-Jul-16 17:45 273 2 16.1
2019-Jul-16 16:47 262 2 16.7
2019-Jul-16 16:31 268 0 15.6
2019-Jul-16 16:17 275 13.9
2019-Jul-16 16:01 276 14.4
2019-Jul-16 15:47 275 13.9
2019-Jul-16 15:30 276 12.8
2019-Jul-16 15:16 276 0 12.2
2019-Jul-16 15:01 252 11.7
2019-Jul-16 14:47 211 11.7
2019-Jul-16 14:31 169 11.1
2019-Jul-16 14:16 169 10.6
2019-Jul-16 14:01 142 10.0
2019-Jul-16 13:47 193 10.0
2019-Jul-16 13:31 138 2 10.6
2019-Jul-16 13:16 092 10.6
2019-Jul-16 13:01 268 10.6
2019-Jul-16 12:47 258 10.6
2019-Jul-16 12:31 240 10.6
2019-Jul-16 12:16 240 10.6
2019-Jul-16 12:01 240 10.6
2019-Jul-16 11:46 240 10.6
2019-Jul-16 11:31 240 10.6
2019-Jul-16 11:15 240 10.0
2019-Jul-16 11:01 240 10.0
2019-Jul-16 10:46 240 10.6
2019-Jul-16 10:45 240 10.6
2019-Jul-16 10:30 240 10.6
2019-Jul-16 10:15 240 0 10.6
2019-Jul-16 10:01 240 11.1
2019-Jul-16 09:46 256 3 11.1
2019-Jul-16 09:31 261 3 11.7
2019-Jul-16 09:16 270 1 12.2
2019-Jul-16 09:00 274 1 11.7
2019-Jul-16 08:45 271 10.6
2019-Jul-16 08:30 271 11.1
2019-Jul-16 08:15 271 0 11.1
2019-Jul-16 08:00 271 1 11.1
2019-Jul-16 07:45 230 0 11.7
2019-Jul-16 07:30 282 1 12.2
2019-Jul-16 07:17 289 3 12.8
2019-Jul-16 07:01 308 7 12.8
2019-Jul-16 06:46 298 11 12.8
2019-Jul-16 06:32 294 7 12.8
2019-Jul-16 06:19 313 10 12.8
2019-Jul-16 06:01 290 12 12.8
2019-Jul-16 05:47 279 7 12.8
2019-Jul-16 05:31 302 6 12.8
2019-Jul-16 05:16 300 8 12.8
2019-Jul-16 05:02 300 11 12.8
2019-Jul-16 04:46 273 10 13.3
2019-Jul-16 04:31 308 10 13.3
2019-Jul-16 04:16 300 11 13.3
2019-Jul-16 04:01 313 9 13.3